Time;durP1;ratioP1;P1;durP2;ratioP2;P2;SDS_P1;SDS_P2;PMS_P1;PMS_P2;Temp;Humidity;BMP_temperature;BMP_pressure;BME280_temperature;BME280_humidity;BME280_pressure;Samples;Min_cycle;Max_cycle;Signal;HPM_P1;HPM_P2
2022/10/09 00:02:13;;;;;;;;;;;;;;;13.92;72.67;96188.06;5049916;28;20017;-75
2022/10/09 00:04:38;;;;;;;;;;;;;;;13.86;72.92;96197.25;5050780;28;20466;-76
2022/10/09 00:07:03;;;;;;;;;;;;;;;13.76;73.01;96195.56;5051130;28;20534;-74
2022/10/09 00:09:28;;;;;;;;;;;;;;;13.77;72.86;96191.03;5045977;28;20014;-75
2022/10/09 00:11:54;;;;;;;;;;;;;;;13.75;73.10;96190.53;5047274;28;20410;-76
2022/10/09 00:14:19;;;;;;;;;;;;;;;13.71;72.66;96194.88;5032789;28;20018;-75
2022/10/09 00:16:44;;;;;;;;;;;;;;;13.64;73.11;96176.56;5045057;28;20021;-75
2022/10/09 00:19:09;;;;;;;;;;;;;;;13.62;73.15;96177.97;5048627;28;20115;-75
2022/10/09 00:21:34;;;;;;;;;;;;;;;13.52;73.09;96181.63;5049992;28;20048;-75
2022/10/09 00:24:01;;;;;;;;;;;;;;;13.42;73.29;96177.28;5050327;28;20477;-75
2022/10/09 00:26:27;;;;;;;;;;;;;;;13.39;73.58;96175.19;5050039;28;20061;-75
2022/10/09 00:28:52;;;;;;;;;;;;;;;13.34;73.33;96172.59;5063749;28;20563;-75
2022/10/09 00:31:18;;;;;;;;;;;;;;;13.22;73.01;96174.97;5048648;28;20013;-75
2022/10/09 00:33:43;;;;;;;;;;;;;;;13.24;73.31;96172.78;5048835;28;20017;-75
2022/10/09 00:36:11;;;;;;;;;;;;;;;13.20;73.16;96167.22;5051357;28;20097;-75
2022/10/09 00:38:36;;;;;;;;;;;;;;;13.07;72.32;96169.88;5046234;28;20881;-75
2022/10/09 00:41:01;;;;;;;;;;;;;;;13.16;73.38;96165.44;5047391;28;20060;-76
2022/10/09 00:43:41;;;;;;;;;;;;;;;12.89;72.31;96164.28;5048778;28;20466;-75
2022/10/09 00:46:11;;;;;;;;;;;;;;;13.05;73.16;96158.69;5047342;28;20356;-75
2022/10/09 00:48:37;;;;;;;;;;;;;;;12.90;72.39;96163.22;5044310;28;20079;-75
2022/10/09 00:51:02;;;;;;;;;;;;;;;12.93;72.47;96165.28;5060719;28;20014;-74
2022/10/09 00:53:28;;;;;;;;;;;;;;;12.82;71.61;96158.53;5065321;28;20390;-75
2022/10/09 00:55:54;;;;;;;;;;;;;;;12.96;72.88;96151.34;5050949;28;20009;-75
2022/10/09 00:58:20;;;;;;;;;;;;;;;12.95;72.67;96154.34;5049310;28;20378;-76
2022/10/09 01:00:46;;;;;;;;;;;;;;;12.81;71.45;96154.28;5048724;28;20017;-75
2022/10/09 01:03:11;;;;;;;;;;;;;;;12.84;72.39;96144.88;5049411;28;20401;-75
2022/10/09 01:05:55;;;;;;;;;;;;;;;12.91;72.17;96140.78;5049463;28;20017;-75
2022/10/09 01:08:26;;;;;;;;;;;;;;;12.88;72.14;96144.00;5048230;28;20017;-75
2022/10/09 01:11:12;;;;;;;;;;;;;;;12.88;71.52;96141.34;5043214;28;20089;-74
2022/10/09 01:14:00;;;;;;;;;;;;;;;12.72;72.01;96148.03;5033770;28;20014;-75
2022/10/09 01:16:31;;;;;;;;;;;;;;;12.66;72.90;96133.97;5047989;28;20014;-75
2022/10/09 01:19:01;;;;;;;;;;;;;;;12.80;72.75;96131.34;5049080;28;20028;-76
2022/10/09 01:21:36;;;;;;;;;;;;;;;12.75;71.59;96142.13;5048826;28;20078;-75
2022/10/09 01:24:09;;;;;;;;;;;;;;;12.84;72.02;96131.53;5050067;28;20096;-75
2022/10/09 01:26:44;;;;;;;;;;;;;;;12.76;71.71;96119.66;5049256;28;20434;-74
2022/10/09 01:29:10;;;;;;;;;;;;;;;12.82;72.58;96129.16;5047653;28;20385;-75
2022/10/09 01:31:41;;;;;;;;;;;;;;;12.84;72.65;96124.31;5041538;28;20013;-75
2022/10/09 01:34:07;;;;;;;;;;;;;;;12.81;72.43;96124.94;5049476;28;20017;-74
2022/10/09 01:36:34;;;;;;;;;;;;;;;12.81;72.32;96121.47;5049041;28;20014;-75
2022/10/09 01:39:01;;;;;;;;;;;;;;;12.75;72.29;96120.75;5046729;28;20108;-75
2022/10/09 01:41:26;;;;;;;;;;;;;;;12.71;72.44;96117.09;5049424;28;20114;-74
2022/10/09 01:43:51;;;;;;;;;;;;;;;12.68;72.58;96115.78;5048133;28;20061;-75
2022/10/09 01:46:16;;;;;;;;;;;;;;;12.63;72.88;96117.75;5048060;28;20026;-75
2022/10/09 01:48:44;;;;;;;;;;;;;;;12.67;72.24;96121.41;5048448;28;20021;-74
2022/10/09 01:51:09;;;;;;;;;;;;;;;12.61;72.22;96111.91;5070673;28;20023;-74
2022/10/09 01:53:35;;;;;;;;;;;;;;;12.66;72.95;96119.84;5056757;28;20014;-75
2022/10/09 01:56:03;;;;;;;;;;;;;;;12.67;72.58;96106.19;5056019;28;20117;-74
2022/10/09 01:58:36;;;;;;;;;;;;;;;12.67;72.55;96108.06;5054720;28;20126;-75
2022/10/09 02:01:13;;;;;;;;;;;;;;;12.68;72.65;96101.66;5045666;28;20018;-75
2022/10/09 02:03:40;;;;;;;;;;;;;;;12.59;71.69;96095.38;5056753;28;20351;-76
2022/10/09 02:06:07;;;;;;;;;;;;;;;12.56;71.95;96090.66;5070823;28;20421;-75
2022/10/09 02:08:32;;;;;;;;;;;;;;;12.53;72.82;96092.00;5054643;28;20505;-75
2022/10/09 02:10:59;;;;;;;;;;;;;;;12.41;71.66;96097.81;5053569;28;20017;-74
2022/10/09 02:13:25;;;;;;;;;;;;;;;12.35;71.84;96091.00;5055412;28;20017;-75
2022/10/09 02:15:52;;;;;;;;;;;;;;;12.41;72.30;96089.03;5053659;28;20108;-74
2022/10/09 02:18:25;;;;;;;;;;;;;;;12.55;72.99;96083.75;5054748;28;20017;-74
2022/10/09 02:20:54;;;;;;;;;;;;;;;12.42;72.63;96079.94;5039688;28;20029;-72
2022/10/09 02:23:21;;;;;;;;;;;;;;;12.41;71.88;96073.03;5036498;28;20010;-75
2022/10/09 02:25:47;;;;;;;;;;;;;;;12.45;73.23;96072.16;5036583;28;20018;-75
2022/10/09 02:28:12;;;;;;;;;;;;;;;12.45;72.62;96071.34;5034775;28;20014;-75
2022/10/09 02:30:45;;;;;;;;;;;;;;;12.49;72.46;96072.38;5051014;28;20010;-75
2022/10/09 02:33:10;;;;;;;;;;;;;;;12.54;72.51;96068.78;5044274;28;20374;-74
2022/10/09 02:35:36;;;;;;;;;;;;;;;12.46;71.32;96068.38;5054526;28;20020;-74
2022/10/09 02:38:01;;;;;;;;;;;;;;;12.52;71.38;96063.75;5056274;28;20009;-75
2022/10/09 02:40:26;;;;;;;;;;;;;;;12.45;72.30;96068.69;5052623;28;20020;-74
2022/10/09 02:42:52;;;;;;;;;;;;;;;12.45;72.62;96066.81;5055224;28;20016;-74
2022/10/09 02:45:17;;;;;;;;;;;;;;;12.32;72.76;96066.75;5053331;28;20386;-74
2022/10/09 02:47:42;;;;;;;;;;;;;;;12.42;71.94;96067.38;5035117;28;20014;-74
2022/10/09 02:50:07;;;;;;;;;;;;;;;12.44;72.49;96070.56;5050293;28;20060;-74
2022/10/09 02:52:33;;;;;;;;;;;;;;;12.57;72.83;96073.56;5054925;28;20052;-74
2022/10/09 02:54:58;;;;;;;;;;;;;;;12.64;72.72;96076.63;5053846;28;20112;-74
2022/10/09 02:57:23;;;;;;;;;;;;;;;12.63;72.35;96067.03;5054992;28;20373;-74
2022/10/09 02:59:48;;;;;;;;;;;;;;;12.61;72.40;96059.31;5053522;28;20018;-75
2022/10/09 03:02:13;;;;;;;;;;;;;;;12.65;72.64;96062.22;5050264;28;20013;-74
2022/10/09 03:04:39;;;;;;;;;;;;;;;12.64;72.07;96068.63;5051491;28;20104;-74
2022/10/09 03:07:04;;;;;;;;;;;;;;;12.65;72.38;96062.22;5052853;28;20010;-74
2022/10/09 03:09:29;;;;;;;;;;;;;;;12.54;71.63;96058.94;5051616;28;20021;-75
2022/10/09 03:11:54;;;;;;;;;;;;;;;12.44;71.80;96049.22;5052057;28;20785;-74
2022/10/09 03:14:19;;;;;;;;;;;;;;;12.48;72.19;96055.53;5047550;28;20024;-74
2022/10/09 03:16:45;;;;;;;;;;;;;;;12.45;71.84;96058.00;5045246;28;20057;-74
2022/10/09 03:19:10;;;;;;;;;;;;;;;12.43;72.21;96047.63;5049821;28;20033;-74
2022/10/09 03:21:35;;;;;;;;;;;;;;;12.50;71.95;96049.91;5051145;28;20462;-75
2022/10/09 03:24:00;;;;;;;;;;;;;;;12.51;72.11;96048.03;5050672;28;20103;-74
2022/10/09 03:26:26;;;;;;;;;;;;;;;12.39;71.33;96043.97;5053306;28;20009;-74
2022/10/09 03:28:52;;;;;;;;;;;;;;;12.44;72.36;96048.44;5033425;28;20022;-74
2022/10/09 03:31:19;;;;;;;;;;;;;;;12.49;72.19;96043.78;5040386;28;20536;-74
2022/10/09 03:33:45;;;;;;;;;;;;;;;12.45;72.24;96039.34;5051738;28;20017;-73
2022/10/09 03:36:10;;;;;;;;;;;;;;;12.26;71.71;96042.03;5067862;28;20024;-74
2022/10/09 03:38:35;;;;;;;;;;;;;;;12.17;71.60;96043.78;5050761;28;20756;-74
2022/10/09 03:41:02;;;;;;;;;;;;;;;12.36;72.59;96041.09;5049950;28;20536;-74
2022/10/09 03:43:27;;;;;;;;;;;;;;;12.26;72.34;96042.03;5050983;28;20048;-75
2022/10/09 03:45:53;;;;;;;;;;;;;;;12.30;72.45;96043.06;5050493;28;20060;-75
2022/10/09 03:48:18;;;;;;;;;;;;;;;12.32;71.96;96040.09;5050451;28;20068;-74
2022/10/09 03:50:43;;;;;;;;;;;;;;;12.19;72.02;96038.97;5050359;28;20067;-74
2022/10/09 03:53:09;;;;;;;;;;;;;;;12.15;72.68;96052.09;5051107;28;20017;-74
2022/10/09 03:55:35;;;;;;;;;;;;;;;12.08;71.31;96040.19;5049961;28;20024;-73
2022/10/09 03:58:00;;;;;;;;;;;;;;;12.18;71.93;96035.53;5050407;28;20079;-75
2022/10/09 04:00:26;;;;;;;;;;;;;;;12.23;71.56;96045.28;5048026;28;20014;-75
2022/10/09 04:02:51;;;;;;;;;;;;;;;12.23;71.71;96042.63;5050587;28;20024;-74
2022/10/09 04:05:16;;;;;;;;;;;;;;;12.08;71.30;96013.53;5049077;28;20013;-74
2022/10/09 04:07:41;;;;;;;;;;;;;;;12.25;71.41;96040.47;5051404;28;20013;-74
2022/10/09 04:10:07;;;;;;;;;;;;;;;11.94;70.57;96008.97;5049118;28;20052;-73
2022/10/09 04:12:32;;;;;;;;;;;;;;;12.32;72.21;96045.41;5049991;28;20065;-73
2022/10/09 04:14:57;;;;;;;;;;;;;;;12.32;71.91;96035.53;5048928;28;20123;-73
2022/10/09 04:17:22;;;;;;;;;;;;;;;12.31;71.63;96036.63;5049011;28;20121;-73
2022/10/09 04:19:47;;;;;;;;;;;;;;;12.21;71.65;96031.47;5049837;28;20010;-72
2022/10/09 04:22:13;;;;;;;;;;;;;;;12.29;71.73;96028.13;5050100;28;20518;-74
2022/10/09 04:24:38;;;;;;;;;;;;;;;12.29;71.35;96030.81;5048912;28;20079;-73
2022/10/09 04:27:03;;;;;;;;;;;;;;;12.29;71.36;96038.81;5051518;28;20056;-73
2022/10/09 04:29:29;;;;;;;;;;;;;;;12.15;71.14;96032.63;5048399;28;20490;-73
2022/10/09 04:31:54;;;;;;;;;;;;;;;11.94;72.02;96040.94;5048215;28;20017;-73
2022/10/09 04:34:19;;;;;;;;;;;;;;;12.11;71.03;96032.41;5050500;28;20021;-73
2022/10/09 04:36:44;;;;;;;;;;;;;;;11.99;71.95;96034.75;5049406;28;20040;-73
2022/10/09 04:39:09;;;;;;;;;;;;;;;11.96;71.75;96038.78;5048829;28;20024;-73
2022/10/09 04:41:34;;;;;;;;;;;;;;;12.13;71.59;96042.78;5045905;28;20024;-74
2022/10/09 04:44:00;;;;;;;;;;;;;;;12.14;71.59;96039.84;5048618;28;20425;-73
2022/10/09 04:46:25;;;;;;;;;;;;;;;12.21;71.77;96036.78;5049300;28;20101;-74
2022/10/09 04:48:50;;;;;;;;;;;;;;;12.18;71.85;96040.03;5035040;28;20022;-72
2022/10/09 04:51:16;;;;;;;;;;;;;;;12.14;71.62;96029.19;5052589;28;20123;-72
2022/10/09 04:53:42;;;;;;;;;;;;;;;12.30;71.14;96027.03;5049761;28;20021;-72
2022/10/09 04:56:09;;;;;;;;;;;;;;;12.32;71.14;96022.19;5050390;28;20018;-72
2022/10/09 04:58:39;;;;;;;;;;;;;;;12.28;71.34;96023.88;5045258;28;20060;-73
2022/10/09 05:01:07;;;;;;;;;;;;;;;12.18;71.28;96027.50;5036792;28;20024;-73
2022/10/09 05:03:33;;;;;;;;;;;;;;;12.03;70.85;96014.44;5050780;28;20485;-73
2022/10/09 05:06:03;;;;;;;;;;;;;;;12.09;71.40;96017.81;5048579;28;20024;-72
2022/10/09 05:08:29;;;;;;;;;;;;;;;12.04;70.67;96012.56;5049472;28;20021;-73
2022/10/09 05:10:58;;;;;;;;;;;;;;;11.87;70.62;96011.19;5049148;28;20024;-72
2022/10/09 05:13:23;;;;;;;;;;;;;;;11.91;71.31;96008.75;5050379;28;20018;-75
2022/10/09 05:15:48;;;;;;;;;;;;;;;11.95;71.32;96010.53;5048652;28;20018;-73
2022/10/09 05:18:13;;;;;;;;;;;;;;;11.95;71.38;96015.06;5049073;28;20498;-73
2022/10/09 05:20:40;;;;;;;;;;;;;;;11.88;71.16;96014.66;5047916;28;20047;-72
2022/10/09 05:23:05;;;;;;;;;;;;;;;11.82;70.31;96007.81;5050630;28;20010;-73
2022/10/09 05:25:30;;;;;;;;;;;;;;;11.78;70.89;96012.91;5044260;28;20014;-72
2022/10/09 05:27:55;;;;;;;;;;;;;;;11.81;71.60;96012.31;5030466;28;20040;-74
2022/10/09 05:30:20;;;;;;;;;;;;;;;11.53;70.62;96010.63;5046222;28;20664;-74
2022/10/09 05:32:46;;;;;;;;;;;;;;;11.69;71.65;96011.97;5049544;28;20409;-74
2022/10/09 05:35:11;;;;;;;;;;;;;;;11.76;71.36;96009.72;5046887;28;20124;-72
2022/10/09 05:37:36;;;;;;;;;;;;;;;11.84;71.63;96006.44;5050279;28;20048;-74
2022/10/09 05:40:01;;;;;;;;;;;;;;;11.86;71.17;96006.94;5047514;28;20016;-74
2022/10/09 05:42:26;;;;;;;;;;;;;;;11.73;71.01;96013.00;5049850;28;20018;-73
2022/10/09 05:44:52;;;;;;;;;;;;;;;11.90;71.72;96015.16;5047811;28;20104;-73
2022/10/09 05:47:18;;;;;;;;;;;;;;;12.00;71.48;96016.88;5048835;28;20403;-72
2022/10/09 05:49:44;;;;;;;;;;;;;;;11.98;70.97;96006.50;5047109;28;20075;-73
2022/10/09 05:52:09;;;;;;;;;;;;;;;12.03;71.01;96000.28;5049847;28;20404;-72
2022/10/09 05:54:34;;;;;;;;;;;;;;;12.06;70.65;96005.03;5046899;28;20067;-73
2022/10/09 05:56:59;;;;;;;;;;;;;;;12.21;70.99;96008.25;5048635;28;20017;-74
2022/10/09 05:59:25;;;;;;;;;;;;;;;12.18;70.85;96008.03;5048599;28;20064;-73
2022/10/09 06:01:50;;;;;;;;;;;;;;;12.06;70.37;96003.16;5049145;28;20021;-72
2022/10/09 06:04:16;;;;;;;;;;;;;;;12.15;69.90;96003.28;5048337;28;20088;-73
2022/10/09 06:06:42;;;;;;;;;;;;;;;12.19;70.43;96006.97;5048808;28;20481;-73
2022/10/09 06:09:08;;;;;;;;;;;;;;;12.22;69.72;96001.81;5047145;28;20036;-73
2022/10/09 06:11:34;;;;;;;;;;;;;;;12.24;69.82;96001.53;5049879;28;20056;-73
2022/10/09 06:14:01;;;;;;;;;;;;;;;12.33;70.19;96005.09;5047941;28;20064;-73
2022/10/09 06:16:30;;;;;;;;;;;;;;;12.17;69.86;96003.78;5047470;28;20067;-73
2022/10/09 06:18:55;;;;;;;;;;;;;;;12.12;69.79;96010.00;5049373;28;20025;-73
2022/10/09 06:21:21;;;;;;;;;;;;;;;11.94;68.94;96006.28;5048743;28;20025;-73
2022/10/09 06:23:50;;;;;;;;;;;;;;;12.36;70.52;96001.06;5047796;28;20079;-73
2022/10/09 06:26:15;;;;;;;;;;;;;;;12.54;70.33;96002.06;5047692;28;20018;-73
2022/10/09 06:28:40;;;;;;;;;;;;;;;12.46;68.73;96003.56;5046112;28;20020;-74
2022/10/09 06:31:06;;;;;;;;;;;;;;;12.38;69.21;96013.00;5048882;28;20676;-75
2022/10/09 06:33:35;;;;;;;;;;;;;;;12.26;67.93;96015.38;5047331;28;20017;-73
2022/10/09 06:36:01;;;;;;;;;;;;;;;12.63;69.39;96024.31;5047799;28;20671;-74
2022/10/09 06:38:26;;;;;;;;;;;;;;;12.90;69.71;96024.38;5051347;28;20024;-74
2022/10/09 06:40:51;;;;;;;;;;;;;;;13.03;69.49;96028.13;5051388;28;20057;-74
2022/10/09 06:43:17;;;;;;;;;;;;;;;13.10;68.72;96025.81;5052251;28;20533;-73
2022/10/09 06:45:42;;;;;;;;;;;;;;;12.92;67.05;96024.84;5049295;28;20176;-75
2022/10/09 06:48:07;;;;;;;;;;;;;;;13.20;68.84;96019.47;5052475;28;20490;-74
2022/10/09 06:50:34;;;;;;;;;;;;;;;12.94;67.36;96021.88;5051957;28;20060;-74
2022/10/09 06:52:59;;;;;;;;;;;;;;;13.10;67.82;96017.81;5052894;28;20498;-74
2022/10/09 06:55:24;;;;;;;;;;;;;;;12.99;67.58;96033.25;5050963;28;20021;-74
2022/10/09 06:57:49;;;;;;;;;;;;;;;12.83;68.27;96001.81;5051566;28;20018;-73
2022/10/09 07:00:14;;;;;;;;;;;;;;;13.24;67.96;96034.66;5049747;28;20020;-74
2022/10/09 07:02:41;;;;;;;;;;;;;;;13.34;66.65;96033.66;5052748;28;20059;-74
2022/10/09 07:05:06;;;;;;;;;;;;;;;13.27;66.99;96026.06;5052032;28;20425;-74
2022/10/09 07:07:31;;;;;;;;;;;;;;;13.51;67.58;96028.50;5051359;28;20018;-74
2022/10/09 07:09:57;;;;;;;;;;;;;;;13.71;67.73;96032.56;5045956;28;20068;-74
2022/10/09 07:12:22;;;;;;;;;;;;;;;13.85;66.64;96027.19;5044181;28;20024;-73
2022/10/09 07:14:47;;;;;;;;;;;;;;;13.93;67.89;96031.03;5067325;28;20014;-74
2022/10/09 07:17:12;;;;;;;;;;;;;;;14.02;66.69;96030.03;5034615;28;20018;-74
2022/10/09 07:19:38;;;;;;;;;;;;;;;13.55;66.41;96039.34;5033961;28;20017;-76
2022/10/09 07:22:03;;;;;;;;;;;;;;;14.01;67.37;96031.09;5051286;28;20461;-77
2022/10/09 07:24:28;;;;;;;;;;;;;;;14.25;66.74;96030.00;5050224;28;20022;-76
2022/10/09 07:26:56;;;;;;;;;;;;;;;14.41;66.92;96030.41;5032128;28;20009;-76
2022/10/09 07:29:22;;;;;;;;;;;;;;;14.60;65.23;96027.56;5050478;28;20018;-76
2022/10/09 07:31:48;;;;;;;;;;;;;;;14.83;66.67;96032.53;5052367;28;20021;-76
2022/10/09 07:34:13;;;;;;;;;;;;;;;15.05;66.71;96026.34;5048159;28;20120;-76
2022/10/09 07:36:38;;;;;;;;;;;;;;;15.09;64.04;96027.28;5049211;28;20152;-76
2022/10/09 07:39:04;;;;;;;;;;;;;;;14.86;65.74;96022.31;5049840;28;20117;-76
2022/10/09 07:41:29;;;;;;;;;;;;;;;14.73;63.71;96018.63;5052605;28;20462;-76
2022/10/09 07:43:55;;;;;;;;;;;;;;;14.99;64.89;96029.44;5051735;28;20095;-76
2022/10/09 07:46:21;;;;;;;;;;;;;;;14.91;65.89;96028.34;5051589;28;20390;-76
2022/10/09 07:48:47;;;;;;;;;;;;;;;14.90;63.79;96024.06;5050172;28;20462;-76
2022/10/09 07:51:14;;;;;;;;;;;;;;;14.91;64.00;96025.66;5050797;28;20010;-75
2022/10/09 07:53:40;;;;;;;;;;;;;;;14.14;62.38;95961.78;5049510;28;20116;-70
2022/10/09 07:56:05;;;;;;;;;;;;;;;15.26;65.42;96031.91;5050789;28;20100;-70
2022/10/09 07:58:31;;;;;;;;;;;;;;;15.07;61.62;95993.88;5047694;28;20017;-70
2022/10/09 08:01:01;;;;;;;;;;;;;;;15.56;65.04;96029.47;5049789;28;20535;-69
2022/10/09 08:03:27;;;;;;;;;;;;;;;15.70;63.23;96029.31;5050675;28;20002;-71
2022/10/09 08:05:53;;;;;;;;;;;;;;;15.91;64.56;96026.81;5050318;28;20262;-68
2022/10/09 08:08:18;;;;;;;;;;;;;;;16.16;64.29;96026.00;5048849;28;20386;-69
2022/10/09 08:10:43;;;;;;;;;;;;;;;16.29;62.62;96029.63;5050978;28;20013;-73
2022/10/09 08:13:08;;;;;;;;;;;;;;;15.97;63.08;96029.03;5050829;28;20010;-69
2022/10/09 08:15:38;;;;;;;;;;;;;;;15.85;60.98;96018.91;5048929;28;20128;-71
2022/10/09 08:18:03;;;;;;;;;;;;;;;15.70;60.62;96018.59;5048144;28;20021;-72
2022/10/09 08:20:29;;;;;;;;;;;;;;;15.34;62.45;96022.31;5047542;28;20020;-71
2022/10/09 08:22:54;;;;;;;;;;;;;;;15.65;62.28;96018.75;5049802;28;20013;-71
2022/10/09 08:25:19;;;;;;;;;;;;;;;15.85;60.17;96013.56;5043439;28;20013;-70
2022/10/09 08:27:44;;;;;;;;;;;;;;;15.69;62.63;96017.03;5047120;28;20017;-68
2022/10/09 08:30:10;;;;;;;;;;;;;;;15.64;59.54;96014.50;5048491;28;20428;-70
2022/10/09 08:32:35;;;;;;;;;;;;;;;16.19;61.39;96011.19;5049610;28;20017;-69
2022/10/09 08:35:00;;;;;;;;;;;;;;;16.24;60.47;96011.78;5048731;28;20025;-71
2022/10/09 08:37:26;;;;;;;;;;;;;;;16.21;62.28;96015.09;5050827;28;20071;-68
2022/10/09 08:39:51;;;;;;;;;;;;;;;16.65;59.96;96007.75;5050444;28;20043;-69
2022/10/09 08:42:25;;;;;;;;;;;;;;;16.92;60.53;96006.56;5051234;28;20010;-70
2022/10/09 08:44:52;;;;;;;;;;;;;;;17.17;59.18;96001.38;5049582;28;20071;-69
2022/10/09 08:47:39;;;;;;;;;;;;;;;16.55;58.50;95998.13;5032521;28;20014;-71
2022/10/09 08:50:15;;;;;;;;;;;;;;;16.46;58.59;95994.69;5039389;28;20018;-71
2022/10/09 08:52:47;;;;;;;;;;;;;;;17.04;61.64;95998.59;5034892;28;20021;-70
2022/10/09 08:55:15;;;;;;;;;;;;;;;17.45;60.16;95999.78;5035613;28;20119;-72
2022/10/09 08:57:41;;;;;;;;;;;;;;;17.29;60.02;95996.09;5048259;28;20027;-77
2022/10/09 09:00:14;;;;;;;;;;;;;;;16.78;59.79;95989.84;5048178;28;20017;-68
2022/10/09 09:02:54;;;;;;;;;;;;;;;17.18;60.75;95989.50;5034068;28;20075;-75
2022/10/09 09:05:35;;;;;;;;;;;;;;;17.34;58.71;95972.47;5049275;28;20497;-72
2022/10/09 09:08:21;;;;;;;;;;;;;;;17.67;57.85;95980.66;5047680;28;20139;-68
2022/10/09 09:11:09;;;;;;;;;;;;;;;16.95;57.88;95970.19;5048074;28;20025;-72
2022/10/09 09:13:39;;;;;;;;;;;;;;;17.63;58.43;95974.34;5038817;28;20052;-68
2022/10/09 09:16:20;;;;;;;;;;;;;;;17.67;56.05;95969.88;5047425;28;20021;-69
2022/10/09 09:19:03;;;;;;;;;;;;;;;18.02;55.42;95971.53;5046103;28;20022;-68
2022/10/09 09:21:55;;;;;;;;;;;;;;;18.22;55.15;95972.59;5048028;28;20057;-71
2022/10/09 09:24:24;;;;;;;;;;;;;;;18.61;57.59;95966.63;5044756;28;20196;-69
2022/10/09 09:26:54;;;;;;;;;;;;;;;18.77;53.92;95964.09;5048130;28;20028;-71
2022/10/09 09:29:21;;;;;;;;;;;;;;;18.99;55.59;95964.75;5044798;28;20014;-71
2022/10/09 09:31:48;;;;;;;;;;;;;;;19.12;57.79;95960.94;5043615;28;20504;-69
2022/10/09 09:34:17;;;;;;;;;;;;;;;19.47;55.53;95962.00;5045614;28;20017;-70
2022/10/09 09:36:52;;;;;;;;;;;;;;;19.17;54.19;95958.78;5045973;28;20017;-71
2022/10/09 09:39:18;;;;;;;;;;;;;;;19.67;55.42;95956.84;5046154;28;20028;-72
2022/10/09 09:41:43;;;;;;;;;;;;;;;19.82;55.55;95960.72;5044626;28;20018;-69
2022/10/09 09:44:10;;;;;;;;;;;;;;;19.43;51.86;95954.94;5046163;28;20023;-69
2022/10/09 09:46:36;;;;;;;;;;;;;;;19.90;53.56;95957.84;5052077;28;20064;-68
2022/10/09 09:49:01;;;;;;;;;;;;;;;18.57;52.62;95960.31;5056302;28;20014;-71
2022/10/09 09:51:28;;;;;;;;;;;;;;;18.24;52.17;95959.59;5051279;28;20010;-71
2022/10/09 09:53:55;;;;;;;;;;;;;;;18.40;52.38;95955.13;5046404;28;20131;-72
2022/10/09 09:56:30;;;;;;;;;;;;;;;19.19;53.42;95953.06;5041966;28;20442;-71
2022/10/09 09:58:56;;;;;;;;;;;;;;;18.70;51.47;95948.47;5044769;28;20131;-72
2022/10/09 10:01:24;;;;;;;;;;;;;;;18.48;51.40;95943.50;5045193;28;20104;-69
2022/10/09 10:03:51;;;;;;;;;;;;;;;18.56;52.39;95947.19;5042447;28;20048;-70
2022/10/09 10:06:21;;;;;;;;;;;;;;;18.63;51.18;95944.72;5044096;28;20018;-76
2022/10/09 10:08:56;;;;;;;;;;;;;;;18.65;51.73;95945.97;5048787;28;20018;-73
2022/10/09 10:11:21;;;;;;;;;;;;;;;19.22;51.69;95941.59;5045874;28;20484;-74
2022/10/09 10:13:48;;;;;;;;;;;;;;;19.02;49.65;95946.00;5048531;28;20018;-72
2022/10/09 10:16:23;;;;;;;;;;;;;;;19.23;50.87;95941.25;5053395;28;20018;-73
2022/10/09 10:18:48;;;;;;;;;;;;;;;19.62;49.92;95928.16;5050986;28;20393;-79
2022/10/09 10:21:15;;;;;;;;;;;;;;;19.67;49.35;95927.94;5052389;28;20014;-72
2022/10/09 10:23:50;;;;;;;;;;;;;;;19.41;51.40;95933.72;5049077;28;20043;-72
2022/10/09 10:26:21;;;;;;;;;;;;;;;19.90;49.75;95930.06;5051684;28;20517;-72
2022/10/09 10:29:05;;;;;;;;;;;;;;;19.78;48.18;95924.75;5041364;28;20105;-71
2022/10/09 10:31:36;;;;;;;;;;;;;;;19.20;49.08;95923.06;5049962;28;20061;-75
2022/10/09 10:34:03;;;;;;;;;;;;;;;19.25;49.03;95915.88;5053274;28;20018;-73
2022/10/09 10:36:29;;;;;;;;;;;;;;;18.98;49.76;95918.13;5049642;28;20112;-74
2022/10/09 10:38:58;;;;;;;;;;;;;;;18.76;50.05;95880.88;5052280;28;20139;-70
2022/10/09 10:41:27;;;;;;;;;;;;;;;18.85;50.34;95919.28;5067266;22;22108;-65
2022/10/09 10:43:56;;;;;;;;;;;;;;;19.44;49.13;95911.41;5071477;28;20389;-67
2022/10/09 10:46:21;;;;;;;;;;;;;;;19.53;48.62;95899.72;5070793;28;20059;-64
2022/10/09 10:48:46;;;;;;;;;;;;;;;19.16;49.52;95900.59;5071217;28;20044;-65
2022/10/09 10:51:21;;;;;;;;;;;;;;;19.44;48.82;95907.94;5058092;28;20009;-64
2022/10/09 10:54:03;;;;;;;;;;;;;;;19.42;49.53;95904.81;5051168;28;20693;-64
2022/10/09 10:56:34;;;;;;;;;;;;;;;19.14;50.02;95897.47;5032664;28;20490;-65
2022/10/09 10:59:17;;;;;;;;;;;;;;;19.33;49.50;95902.25;5032486;28;20052;-65
2022/10/09 11:01:57;;;;;;;;;;;;;;;19.18;49.61;95898.34;5032761;28;20418;-65
2022/10/09 11:04:27;;;;;;;;;;;;;;;18.98;50.08;95893.88;5039935;28;20016;-65
2022/10/09 11:06:59;;;;;;;;;;;;;;;19.29;49.04;95895.94;5053020;28;20099;-66
2022/10/09 11:09:43;;;;;;;;;;;;;;;19.33;49.13;95901.47;5054553;28;20021;-66
2022/10/09 11:12:14;;;;;;;;;;;;;;;19.51;48.95;95891.97;5051870;28;20017;-65
2022/10/09 11:14:39;;;;;;;;;;;;;;;19.97;48.29;95889.78;5051991;28;20021;-65
2022/10/09 11:17:14;;;;;;;;;;;;;;;19.45;48.55;95887.94;5048857;28;20013;-64
2022/10/09 11:19:42;;;;;;;;;;;;;;;19.64;48.14;95887.34;5067176;28;20565;-65
2022/10/09 11:22:07;;;;;;;;;;;;;;;20.22;47.57;95885.81;5051373;28;20020;-65
2022/10/09 11:24:32;;;;;;;;;;;;;;;20.34;47.67;95873.34;5047754;28;20017;-67
2022/10/09 11:27:09;;;;;;;;;;;;;;;20.55;46.45;95876.59;5046162;28;20014;-67
2022/10/09 11:29:38;;;;;;;;;;;;;;;20.59;45.85;95884.81;5069828;28;20071;-65
2022/10/09 11:32:09;;;;;;;;;;;;;;;20.81;45.75;95876.03;5070642;28;20013;-65
2022/10/09 11:34:42;;;;;;;;;;;;;;;21.10;44.97;95876.69;5070641;28;20053;-66
2022/10/09 11:37:11;;;;;;;;;;;;;;;21.52;44.94;95872.19;5070039;28;20014;-65
2022/10/09 11:39:38;;;;;;;;;;;;;;;21.73;43.68;95874.53;5071498;28;20017;-65
2022/10/09 11:42:03;;;;;;;;;;;;;;;21.87;42.58;95875.97;5071894;28;20017;-65
2022/10/09 11:44:53;;;;;;;;;;;;;;;21.98;42.61;95860.69;5071957;28;20016;-66
2022/10/09 11:47:24;;;;;;;;;;;;;;;22.03;42.27;95866.59;5071677;28;20100;-66
2022/10/09 11:49:49;;;;;;;;;;;;;;;21.28;43.59;95867.03;5067919;28;20013;-65
2022/10/09 11:52:25;;;;;;;;;;;;;;;21.64;43.49;95857.72;5071682;28;20561;-68
2022/10/09 11:54:50;;;;;;;;;;;;;;;21.47;43.42;95853.53;5071541;28;20017;-66
2022/10/09 11:57:25;;;;;;;;;;;;;;;21.28;43.38;95856.19;5070335;28;20040;-67
2022/10/09 12:00:00;;;;;;;;;;;;;;;21.85;43.27;95848.44;5068681;28;20013;-67
2022/10/09 12:02:27;;;;;;;;;;;;;;;22.15;42.43;95843.97;5070148;28;20023;-67
2022/10/09 12:04:53;;;;;;;;;;;;;;;22.00;41.95;95842.91;5067787;28;20021;-69
2022/10/09 12:07:29;;;;;;;;;;;;;;;22.13;41.71;95840.88;5069347;28;20041;-68
2022/10/09 12:10:03;;;;;;;;;;;;;;;22.14;42.28;95841.63;5070900;28;20016;-69
2022/10/09 12:12:29;;;;;;;;;;;;;;;22.23;41.12;95834.06;5071591;28;20419;-69
2022/10/09 12:14:55;;;;;;;;;;;;;;;22.01;41.88;95827.47;5067999;28;20075;-69
2022/10/09 12:17:20;;;;;;;;;;;;;;;22.52;42.43;95821.72;5071188;28;20021;-69
2022/10/09 12:19:45;;;;;;;;;;;;;;;22.57;40.91;95821.41;5070845;28;20489;-69
2022/10/09 12:22:15;;;;;;;;;;;;;;;22.66;40.93;95818.47;5069924;28;20070;-69
2022/10/09 12:24:48;;;;;;;;;;;;;;;22.24;41.73;95813.94;5070131;28;20062;-70
2022/10/09 12:27:19;;;;;;;;;;;;;;;22.37;41.29;95804.50;5069351;28;20074;-71
2022/10/09 12:29:46;;;;;;;;;;;;;;;22.74;40.99;95814.72;5069724;28;20017;-74
2022/10/09 12:32:25;;;;;;;;;;;;;;;22.41;41.02;95801.81;5069872;28;20502;-71
2022/10/09 12:34:50;;;;;;;;;;;;;;;22.61;40.92;95808.72;5070964;28;20017;-68
2022/10/09 12:37:19;;;;;;;;;;;;;;;22.36;41.05;95802.13;5068477;28;20020;-68
2022/10/09 12:39:45;;;;;;;;;;;;;;;22.56;41.05;95795.47;5069707;28;20098;-74
2022/10/09 12:42:31;;;;;;;;;;;;;;;22.49;41.02;95790.72;5070792;28;20056;-68
2022/10/09 12:44:56;;;;;;;;;;;;;;;21.81;42.12;95796.94;5045269;28;20505;-67
2022/10/09 12:47:27;;;;;;;;;;;;;;;21.27;43.22;95795.88;5049501;28;20017;-67
2022/10/09 12:49:58;;;;;;;;;;;;;;;20.95;43.73;95789.84;5030193;28;20017;-67
2022/10/09 12:52:23;;;;;;;;;;;;;;;20.70;44.29;95794.69;5029423;28;20013;-66